sensor_id;sensor_type;location;lat;lon;timestamp;pressure;altitude;pressure_sealevel;temperature;humidity
59029;BME280;45919;51.420;5.454;2022-08-21T00:00:07;101600.06;;;16.31;75.65
59029;BME280;45919;51.420;5.454;2022-08-21T00:01:14;101598.31;;;16.32;75.45
59029;BME280;45919;51.420;5.454;2022-08-21T00:02:22;101602.69;;;16.33;75.51
59029;BME280;45919;51.420;5.454;2022-08-21T00:03:25;101593.00;;;16.24;75.28
59029;BME280;45919;51.420;5.454;2022-08-21T00:04:27;101599.16;;;16.23;75.36
59029;BME280;45919;51.420;5.454;2022-08-21T00:05:30;101602.66;;;16.23;75.28
59029;BME280;45919;51.420;5.454;2022-08-21T00:06:32;101593.88;;;16.21;75.47
59029;BME280;45919;51.420;5.454;2022-08-21T00:07:35;101591.22;;;16.18;75.57
59029;BME280;45919;51.420;5.454;2022-08-21T00:08:36;101598.25;;;16.21;75.66
59029;BME280;45919;51.420;5.454;2022-08-21T00:09:38;101581.53;;;16.08;75.48
59029;BME280;45919;51.420;5.454;2022-08-21T00:10:42;101595.63;;;16.24;75.71
59029;BME280;45919;51.420;5.454;2022-08-21T00:11:44;101591.25;;;16.23;75.36
59029;BME280;45919;51.420;5.454;2022-08-21T00:12:46;101570.97;;;16.06;75.68
59029;BME280;45919;51.420;5.454;2022-08-21T00:13:48;101599.16;;;16.21;75.42
59029;BME280;45919;51.420;5.454;2022-08-21T00:14:50;101581.53;;;16.11;75.62
59029;BME280;45919;51.420;5.454;2022-08-21T00:15:51;101600.00;;;16.17;75.72
59029;BME280;45919;51.420;5.454;2022-08-21T00:16:53;101597.38;;;16.14;75.83
59029;BME280;45919;51.420;5.454;2022-08-21T00:17:55;101582.38;;;16.02;75.67
59029;BME280;45919;51.420;5.454;2022-08-21T00:18:57;101594.72;;;16.16;75.88
59029;BME280;45919;51.420;5.454;2022-08-21T00:19:58;101595.59;;;16.13;76.02
59029;BME280;45919;51.420;5.454;2022-08-21T00:21:00;101592.97;;;16.16;75.80
59029;BME280;45919;51.420;5.454;2022-08-21T00:22:02;101593.84;;;16.13;75.76
59029;BME280;45919;51.420;5.454;2022-08-21T00:23:04;101594.69;;;16.12;76.06
59029;BME280;45919;51.420;5.454;2022-08-21T00:24:06;101562.09;;;15.96;76.08
59029;BME280;45919;51.420;5.454;2022-08-21T00:25:08;101572.66;;;15.99;76.14
59029;BME280;45919;51.420;5.454;2022-08-21T00:26:10;101562.09;;;15.92;75.63
59029;BME280;45919;51.420;5.454;2022-08-21T00:27:12;101595.56;;;16.05;75.77
59029;BME280;45919;51.420;5.454;2022-08-21T00:28:14;101556.78;;;15.85;76.27
59029;BME280;45919;51.420;5.454;2022-08-21T00:29:16;101594.69;;;16.05;76.25
59029;BME280;45919;51.420;5.454;2022-08-21T00:30:19;101568.22;;;15.87;76.38
59029;BME280;45919;51.420;5.454;2022-08-21T00:31:21;101591.09;;;15.99;76.16
59029;BME280;45919;51.420;5.454;2022-08-21T00:32:25;101570.84;;;15.87;76.33
59029;BME280;45919;51.420;5.454;2022-08-21T00:33:27;101585.81;;;15.98;76.26
59029;BME280;45919;51.420;5.454;2022-08-21T00:34:29;101556.75;;;15.76;76.70
59029;BME280;45919;51.420;5.454;2022-08-21T00:35:35;101587.59;;;15.99;76.92
59029;BME280;45919;51.420;5.454;2022-08-21T00:36:37;101586.69;;;15.94;76.87
59029;BME280;45919;51.420;5.454;2022-08-21T00:37:40;101585.81;;;15.96;77.05
59029;BME280;45919;51.420;5.454;2022-08-21T00:38:42;101590.19;;;15.96;77.47
59029;BME280;45919;51.420;5.454;2022-08-21T00:39:43;101582.28;;;15.91;77.28
59029;BME280;45919;51.420;5.454;2022-08-21T00:40:54;101572.63;;;15.93;77.46
59029;BME280;45919;51.420;5.454;2022-08-21T00:41:56;101580.53;;;15.90;77.75
59029;BME280;45919;51.420;5.454;2022-08-21T00:42:58;101581.38;;;15.86;77.72
59029;BME280;45919;51.420;5.454;2022-08-21T00:43:59;101550.56;;;15.68;77.61
59029;BME280;45919;51.420;5.454;2022-08-21T00:45:02;101577.88;;;15.87;77.73
59029;BME280;45919;51.420;5.454;2022-08-21T00:46:05;101542.66;;;15.68;78.08
59029;BME280;45919;51.420;5.454;2022-08-21T00:47:07;101579.59;;;15.85;77.78
59029;BME280;45919;51.420;5.454;2022-08-21T00:48:09;101581.38;;;15.84;78.06
59029;BME280;45919;51.420;5.454;2022-08-21T00:49:12;101583.13;;;15.85;78.36
59029;BME280;45919;51.420;5.454;2022-08-21T00:50:14;101580.50;;;15.82;77.76
59029;BME280;45919;51.420;5.454;2022-08-21T00:51:25;101578.75;;;15.87;78.01
59029;BME280;45919;51.420;5.454;2022-08-21T00:52:32;101571.69;;;15.77;77.96
59029;BME280;45919;51.420;5.454;2022-08-21T00:53:40;101578.75;;;15.84;77.92
59029;BME280;45919;51.420;5.454;2022-08-21T00:54:43;101576.97;;;15.77;77.90
59029;BME280;45919;51.420;5.454;2022-08-21T00:55:45;101577.81;;;15.76;78.16
59029;BME280;45919;51.420;5.454;2022-08-21T00:56:50;101570.78;;;15.73;77.96
59029;BME280;45919;51.420;5.454;2022-08-21T00:57:55;101575.19;;;15.77;78.04
59029;BME280;45919;51.420;5.454;2022-08-21T00:58:58;101576.91;;;15.74;78.27
59029;BME280;45919;51.420;5.454;2022-08-21T01:00:05;101559.31;;;15.59;78.28
59029;BME280;45919;51.420;5.454;2022-08-21T01:01:08;101514.34;;;15.27;78.04
59029;BME280;45919;51.420;5.454;2022-08-21T01:02:10;101577.81;;;15.71;78.20
59029;BME280;45919;51.420;5.454;2022-08-21T01:03:15;101574.28;;;15.71;78.48
59029;BME280;45919;51.420;5.454;2022-08-21T01:04:18;101581.28;;;15.67;78.48
59029;BME280;45919;51.420;5.454;2022-08-21T01:05:20;101583.06;;;15.68;78.46
59029;BME280;45919;51.420;5.454;2022-08-21T01:06:22;101582.16;;;15.66;78.30
59029;BME280;45919;51.420;5.454;2022-08-21T01:07:23;101551.34;;;15.49;78.59
59029;BME280;45919;51.420;5.454;2022-08-21T01:08:27;101564.56;;;15.57;78.49
59029;BME280;45919;51.420;5.454;2022-08-21T01:09:30;101570.72;;;15.61;78.58
59029;BME280;45919;51.420;5.454;2022-08-21T01:10:32;101578.63;;;15.62;78.42
59029;BME280;45919;51.420;5.454;2022-08-21T01:11:35;101553.97;;;15.49;78.46
59029;BME280;45919;51.420;5.454;2022-08-21T01:12:37;101576.00;;;15.61;78.44
59029;BME280;45919;51.420;5.454;2022-08-21T01:13:38;101568.03;;;15.51;78.14
59029;BME280;45919;51.420;5.454;2022-08-21T01:14:47;101576.84;;;15.57;78.57
59029;BME280;45919;51.420;5.454;2022-08-21T01:15:51;101581.22;;;15.59;78.94
59029;BME280;45919;51.420;5.454;2022-08-21T01:16:54;101583.84;;;15.56;79.11
59029;BME280;45919;51.420;5.454;2022-08-21T01:17:57;101583.84;;;15.56;78.85
59029;BME280;45919;51.420;5.454;2022-08-21T01:18:58;101576.78;;;15.52;78.79
59029;BME280;45919;51.420;5.454;2022-08-21T01:20:04;101551.28;;;15.37;79.13
59029;BME280;45919;51.420;5.454;2022-08-21T01:21:19;101575.09;;;15.57;79.48
59029;BME280;45919;51.420;5.454;2022-08-21T01:22:20;101576.78;;;15.52;79.79
59029;BME280;45919;51.420;5.454;2022-08-21T01:23:22;101577.69;;;15.51;79.53
59029;BME280;45919;51.420;5.454;2022-08-21T01:24:23;101572.41;;;15.48;79.88
59029;BME280;45919;51.420;5.454;2022-08-21T01:25:26;101570.63;;;15.45;80.08
59029;BME280;45919;51.420;5.454;2022-08-21T01:26:31;101570.63;;;15.45;80.06
59029;BME280;45919;51.420;5.454;2022-08-21T01:27:33;101568.88;;;15.42;80.32
59029;BME280;45919;51.420;5.454;2022-08-21T01:28:38;101569.75;;;15.46;80.18
59029;BME280;45919;51.420;5.454;2022-08-21T01:29:47;101568.88;;;15.46;80.36
59029;BME280;45919;51.420;5.454;2022-08-21T01:30:53;101573.25;;;15.44;80.54
59029;BME280;45919;51.420;5.454;2022-08-21T01:31:55;101568.81;;;15.39;80.22
59029;BME280;45919;51.420;5.454;2022-08-21T01:32:56;101571.44;;;15.38;80.29
59029;BME280;45919;51.420;5.454;2022-08-21T01:33:59;101568.81;;;15.38;80.51
59029;BME280;45919;51.420;5.454;2022-08-21T01:35:00;101567.06;;;15.38;80.34
59029;BME280;45919;51.420;5.454;2022-08-21T01:36:02;101574.09;;;15.39;80.79
59029;BME280;45919;51.420;5.454;2022-08-21T01:37:04;101536.25;;;15.20;80.94
59029;BME280;45919;51.420;5.454;2022-08-21T01:38:06;101575.81;;;15.34;80.66
59029;BME280;45919;51.420;5.454;2022-08-21T01:39:08;101535.28;;;15.10;80.68
59029;BME280;45919;51.420;5.454;2022-08-21T01:40:11;101567.03;;;15.34;80.64
59029;BME280;45919;51.420;5.454;2022-08-21T01:41:14;101575.81;;;15.33;80.68
59029;BME280;45919;51.420;5.454;2022-08-21T01:42:16;101570.53;;;15.33;80.97
59029;BME280;45919;51.420;5.454;2022-08-21T01:43:18;101567.91;;;15.29;80.78
59029;BME280;45919;51.420;5.454;2022-08-21T01:44:21;101556.47;;;15.32;80.30
59029;BME280;45919;51.420;5.454;2022-08-21T01:45:23;101571.41;;;15.32;80.00
59029;BME280;45919;51.420;5.454;2022-08-21T01:46:25;101562.63;;;15.28;80.50
59029;BME280;45919;51.420;5.454;2022-08-21T01:47:26;101559.09;;;15.24;80.33
59029;BME280;45919;51.420;5.454;2022-08-21T01:48:28;101560.84;;;15.27;80.45
59029;BME280;45919;51.420;5.454;2022-08-21T01:49:30;101566.13;;;15.30;80.15
59029;BME280;45919;51.420;5.454;2022-08-21T01:50:31;101561.75;;;15.29;80.11
59029;BME280;45919;51.420;5.454;2022-08-21T01:51:33;101569.63;;;15.29;80.01
59029;BME280;45919;51.420;5.454;2022-08-21T01:52:35;101569.63;;;15.29;79.96
59029;BME280;45919;51.420;5.454;2022-08-21T01:53:37;101570.50;;;15.28;79.91
59029;BME280;45919;51.420;5.454;2022-08-21T01:54:41;101574.91;;;15.29;80.00
59029;BME280;45919;51.420;5.454;2022-08-21T01:55:43;101564.38;;;15.29;80.06
59029;BME280;45919;51.420;5.454;2022-08-21T01:56:48;101530.91;;;15.14;79.88
59029;BME280;45919;51.420;5.454;2022-08-21T01:57:51;101560.84;;;15.25;79.94
59029;BME280;45919;51.420;5.454;2022-08-21T01:58:52;101539.69;;;15.10;80.11
59029;BME280;45919;51.420;5.454;2022-08-21T01:59:54;101564.31;;;15.21;80.26
59029;BME280;45919;51.420;5.454;2022-08-21T02:00:56;101559.03;;;15.18;80.13
59029;BME280;45919;51.420;5.454;2022-08-21T02:01:57;101553.78;;;15.23;80.04
59029;BME280;45919;51.420;5.454;2022-08-21T02:02:59;101548.50;;;15.18;79.99
59029;BME280;45919;51.420;5.454;2022-08-21T02:04:01;101550.25;;;15.19;80.03
59029;BME280;45919;51.420;5.454;2022-08-21T02:05:03;101520.31;;;15.00;79.71
59029;BME280;45919;51.420;5.454;2022-08-21T02:06:06;101547.66;;;15.21;79.99
59029;BME280;45919;51.420;5.454;2022-08-21T02:07:09;101515.03;;;15.00;80.17
59029;BME280;45919;51.420;5.454;2022-08-21T02:08:10;101547.63;;;15.19;79.92
59029;BME280;45919;51.420;5.454;2022-08-21T02:09:13;101515.03;;;15.00;80.24
59029;BME280;45919;51.420;5.454;2022-08-21T02:10:20;101542.34;;;15.19;80.42
59029;BME280;45919;51.420;5.454;2022-08-21T02:11:22;101549.38;;;15.17;79.72
59029;BME280;45919;51.420;5.454;2022-08-21T02:12:23;101548.50;;;15.16;79.95
59029;BME280;45919;51.420;5.454;2022-08-21T02:13:25;101538.88;;;15.18;80.17
59029;BME280;45919;51.420;5.454;2022-08-21T02:14:27;101536.19;;;15.15;80.31
59029;BME280;45919;51.420;5.454;2022-08-21T02:15:29;101546.75;;;15.17;80.53
59029;BME280;45919;51.420;5.454;2022-08-21T02:16:31;101538.81;;;15.15;80.64
59029;BME280;45919;51.420;5.454;2022-08-21T02:17:44;101547.69;;;15.25;81.00
59029;BME280;45919;51.420;5.454;2022-08-21T02:18:46;101549.34;;;15.14;80.68
59029;BME280;45919;51.420;5.454;2022-08-21T02:19:48;101549.34;;;15.12;80.62
59029;BME280;45919;51.420;5.454;2022-08-21T02:20:49;101542.31;;;15.11;80.48
59029;BME280;45919;51.420;5.454;2022-08-21T02:21:51;101548.44;;;15.12;80.48
59029;BME280;45919;51.420;5.454;2022-08-21T02:22:53;101552.84;;;15.11;80.31
59029;BME280;45919;51.420;5.454;2022-08-21T02:23:54;101535.28;;;15.09;80.84
59029;BME280;45919;51.420;5.454;2022-08-21T02:24:56;101547.56;;;15.10;81.11
59029;BME280;45919;51.420;5.454;2022-08-21T02:26:00;101546.69;;;15.08;81.28
59029;BME280;45919;51.420;5.454;2022-08-21T02:27:02;101543.16;;;15.07;81.07
59029;BME280;45919;51.420;5.454;2022-08-21T02:28:10;101544.94;;;15.11;81.29
59029;BME280;45919;51.420;5.454;2022-08-21T02:29:12;101542.25;;;15.05;81.56
59029;BME280;45919;51.420;5.454;2022-08-21T02:30:30;101545.84;;;15.13;81.92
59029;BME280;45919;51.420;5.454;2022-08-21T02:31:32;101542.25;;;15.02;81.57
59029;BME280;45919;51.420;5.454;2022-08-21T02:32:34;101540.47;;;15.01;81.86
59029;BME280;45919;51.420;5.454;2022-08-21T02:33:35;101542.25;;;15.00;82.02
59029;BME280;45919;51.420;5.454;2022-08-21T02:34:37;101536.06;;;14.95;81.72
59029;BME280;45919;51.420;5.454;2022-08-21T02:35:40;101543.09;;;14.99;82.02
59029;BME280;45919;51.420;5.454;2022-08-21T02:36:43;101512.22;;;14.81;82.11
59029;BME280;45919;51.420;5.454;2022-08-21T02:37:50;101536.91;;;14.92;82.08
59029;BME280;45919;51.420;5.454;2022-08-21T02:38:53;101536.00;;;14.92;81.88
59029;BME280;45919;51.420;5.454;2022-08-21T02:39:54;101539.53;;;14.94;82.01
59029;BME280;45919;51.420;5.454;2022-08-21T02:40:56;101535.09;;;14.87;81.98
59029;BME280;45919;51.420;5.454;2022-08-21T02:41:58;101529.81;;;14.84;81.91
59029;BME280;45919;51.420;5.454;2022-08-21T02:43:01;101541.25;;;14.89;81.70
59029;BME280;45919;51.420;5.454;2022-08-21T02:44:03;101535.09;;;14.87;81.60
59029;BME280;45919;51.420;5.454;2022-08-21T02:45:06;101547.41;;;14.88;81.68
59029;BME280;45919;51.420;5.454;2022-08-21T02:46:09;101549.16;;;14.89;81.76
59029;BME280;45919;51.420;5.454;2022-08-21T02:47:11;101529.72;;;14.79;81.90
59029;BME280;45919;51.420;5.454;2022-08-21T02:48:17;101519.19;;;14.76;81.83
59029;BME280;45919;51.420;5.454;2022-08-21T02:49:19;101541.25;;;14.86;82.02
59029;BME280;45919;51.420;5.454;2022-08-21T02:50:24;101537.72;;;14.84;81.91
59029;BME280;45919;51.420;5.454;2022-08-21T02:51:26;101547.34;;;14.81;81.73
59029;BME280;45919;51.420;5.454;2022-08-21T02:52:27;101545.59;;;14.82;82.06
59029;BME280;45919;51.420;5.454;2022-08-21T02:53:30;101553.44;;;14.80;81.87
59029;BME280;45919;51.420;5.454;2022-08-21T02:54:32;101546.41;;;14.81;81.70
59029;BME280;45919;51.420;5.454;2022-08-21T02:55:36;101554.28;;;14.79;82.21
59029;BME280;45919;51.420;5.454;2022-08-21T02:56:38;101550.75;;;14.77;81.82
59029;BME280;45919;51.420;5.454;2022-08-21T02:57:40;101547.22;;;14.72;81.75
59029;BME280;45919;51.420;5.454;2022-08-21T02:58:45;101552.53;;;14.77;81.94
59029;BME280;45919;51.420;5.454;2022-08-21T02:59:48;101547.22;;;14.72;82.07
59029;BME280;45919;51.420;5.454;2022-08-21T03:00:50;101545.47;;;14.71;81.79
59029;BME280;45919;51.420;5.454;2022-08-21T03:01:52;101546.31;;;14.70;81.74
59029;BME280;45919;51.420;5.454;2022-08-21T03:02:54;101526.91;;;14.58;81.79
59029;BME280;45919;51.420;5.454;2022-08-21T03:03:57;101549.81;;;14.67;81.89
59029;BME280;45919;51.420;5.454;2022-08-21T03:04:58;101553.28;;;14.63;81.94
59029;BME280;45919;51.420;5.454;2022-08-21T03:06:00;101511.91;;;14.45;81.76
59029;BME280;45919;51.420;5.454;2022-08-21T03:07:02;101541.88;;;14.63;81.87
59029;BME280;45919;51.420;5.454;2022-08-21T03:08:06;101551.53;;;14.64;81.89
59029;BME280;45919;51.420;5.454;2022-08-21T03:09:11;101548.84;;;14.59;82.08
59029;BME280;45919;51.420;5.454;2022-08-21T03:10:13;101521.56;;;14.47;81.81
59029;BME280;45919;51.420;5.454;2022-08-21T03:11:15;101540.03;;;14.54;82.07
59029;BME280;45919;51.420;5.454;2022-08-21T03:12:17;101540.91;;;14.54;82.13
59029;BME280;45919;51.420;5.454;2022-08-21T03:13:20;101540.88;;;14.51;82.19
59029;BME280;45919;51.420;5.454;2022-08-21T03:14:22;101546.13;;;14.51;82.21
59029;BME280;45919;51.420;5.454;2022-08-21T03:15:24;101540.88;;;14.51;81.98
59029;BME280;45919;51.420;5.454;2022-08-21T03:16:26;101537.41;;;14.52;82.15
59029;BME280;45919;51.420;5.454;2022-08-21T03:17:28;101538.22;;;14.48;81.87
59029;BME280;45919;51.420;5.454;2022-08-21T03:18:30;101536.47;;;14.45;82.05
59029;BME280;45919;51.420;5.454;2022-08-21T03:19:32;101530.22;;;14.39;82.32
59029;BME280;45919;51.420;5.454;2022-08-21T03:20:35;101539.91;;;14.43;82.44
59029;BME280;45919;51.420;5.454;2022-08-21T03:21:36;101535.47;;;14.37;82.29
59029;BME280;45919;51.420;5.454;2022-08-21T03:22:38;101539.91;;;14.41;82.47
59029;BME280;45919;51.420;5.454;2022-08-21T03:23:40;101544.28;;;14.41;82.61
59029;BME280;45919;51.420;5.454;2022-08-21T03:24:43;101539.00;;;14.36;82.68
59029;BME280;45919;51.420;5.454;2022-08-21T03:25:47;101414.69;;;13.59;82.51
59029;BME280;45919;51.420;5.454;2022-08-21T03:26:49;101539.81;;;14.33;82.65
59029;BME280;45919;51.420;5.454;2022-08-21T03:27:51;101545.06;;;14.33;82.56
59029;BME280;45919;51.420;5.454;2022-08-21T03:28:55;101539.81;;;14.32;82.74
59029;BME280;45919;51.420;5.454;2022-08-21T03:29:59;101538.06;;;14.31;82.64
59029;BME280;45919;51.420;5.454;2022-08-21T03:31:00;101534.53;;;14.30;82.54
59029;BME280;45919;51.420;5.454;2022-08-21T03:32:02;101528.41;;;14.30;82.98
59029;BME280;45919;51.420;5.454;2022-08-21T03:33:04;101528.38;;;14.27;82.76
59029;BME280;45919;51.420;5.454;2022-08-21T03:34:05;101524.81;;;14.21;83.05
59029;BME280;45919;51.420;5.454;2022-08-21T03:35:07;101540.59;;;14.25;82.87
59029;BME280;45919;51.420;5.454;2022-08-21T03:36:10;101532.72;;;14.25;82.94
59029;BME280;45919;51.420;5.454;2022-08-21T03:37:12;101529.19;;;14.22;83.10
59029;BME280;45919;51.420;5.454;2022-08-21T03:38:14;101535.31;;;14.21;82.74
59029;BME280;45919;51.420;5.454;2022-08-21T03:39:16;101446.31;;;13.69;83.17
59029;BME280;45919;51.420;5.454;2022-08-21T03:40:19;101538.78;;;14.19;83.34
59029;BME280;45919;51.420;5.454;2022-08-21T03:41:21;101537.06;;;14.19;83.09
59029;BME280;45919;51.420;5.454;2022-08-21T03:42:23;101530.00;;;14.18;83.16
59029;BME280;45919;51.420;5.454;2022-08-21T03:43:24;101526.41;;;14.08;83.42
59029;BME280;45919;51.420;5.454;2022-08-21T03:44:27;101526.41;;;14.05;83.47
59029;BME280;45919;51.420;5.454;2022-08-21T03:45:31;101536.03;;;14.09;83.43
59029;BME280;45919;51.420;5.454;2022-08-21T03:46:33;101534.31;;;14.11;83.33
59029;BME280;45919;51.420;5.454;2022-08-21T03:47:35;101531.69;;;14.10;82.95
59029;BME280;45919;51.420;5.454;2022-08-21T03:48:37;101537.84;;;14.12;83.15
59029;BME280;45919;51.420;5.454;2022-08-21T03:49:39;101532.56;;;14.10;83.45
59029;BME280;45919;51.420;5.454;2022-08-21T03:50:43;101524.59;;;14.01;83.28
59029;BME280;45919;51.420;5.454;2022-08-21T03:51:45;101530.75;;;14.03;83.50
59029;BME280;45919;51.420;5.454;2022-08-21T03:52:46;101533.41;;;14.08;83.36
59029;BME280;45919;51.420;5.454;2022-08-21T03:53:48;101528.13;;;14.06;83.62
59029;BME280;45919;51.420;5.454;2022-08-21T03:54:50;101537.75;;;14.06;83.59
59029;BME280;45919;51.420;5.454;2022-08-21T03:55:52;101459.31;;;13.59;83.66
59029;BME280;45919;51.420;5.454;2022-08-21T03:56:54;101543.00;;;14.03;83.74
59029;BME280;45919;51.420;5.454;2022-08-21T03:57:56;101536.00;;;14.03;83.75
59029;BME280;45919;51.420;5.454;2022-08-21T03:58:58;101512.13;;;13.86;84.02
59029;BME280;45919;51.420;5.454;2022-08-21T03:59:59;101534.19;;;14.01;84.04
59029;BME280;45919;51.420;5.454;2022-08-21T04:01:02;101531.59;;;14.02;84.38
59029;BME280;45919;51.420;5.454;2022-08-21T04:02:06;101533.38;;;14.03;84.28
59029;BME280;45919;51.420;5.454;2022-08-21T04:03:07;101526.28;;;13.97;84.51
59029;BME280;45919;51.420;5.454;2022-08-21T04:04:09;101527.13;;;13.96;84.59
59029;BME280;45919;51.420;5.454;2022-08-21T04:05:13;101482.19;;;13.71;84.57
59029;BME280;45919;51.420;5.454;2022-08-21T04:06:15;101519.22;;;13.93;84.78
59029;BME280;45919;51.420;5.454;2022-08-21T04:07:16;101531.53;;;13.97;84.86
59029;BME280;45919;51.420;5.454;2022-08-21T04:08:19;101525.38;;;13.94;85.10
59029;BME280;45919;51.420;5.454;2022-08-21T04:09:20;101527.13;;;13.96;85.39
59029;BME280;45919;51.420;5.454;2022-08-21T04:10:23;101530.63;;;13.94;85.00
59029;BME280;45919;51.420;5.454;2022-08-21T04:11:25;101533.28;;;13.97;84.87
59029;BME280;45919;51.420;5.454;2022-08-21T04:12:27;101518.28;;;13.88;85.05
59029;BME280;45919;51.420;5.454;2022-08-21T04:13:28;101535.00;;;13.96;85.27
59029;BME280;45919;51.420;5.454;2022-08-21T04:14:30;101536.72;;;13.93;84.84
59029;BME280;45919;51.420;5.454;2022-08-21T04:15:32;101516.47;;;13.81;85.16
59029;BME280;45919;51.420;5.454;2022-08-21T04:16:35;101536.78;;;13.96;85.34
59029;BME280;45919;51.420;5.454;2022-08-21T04:17:36;101538.50;;;13.94;85.53
59029;BME280;45919;51.420;5.454;2022-08-21T04:18:38;101530.63;;;13.94;85.41
59029;BME280;45919;51.420;5.454;2022-08-21T04:19:40;101540.25;;;13.93;85.74
59029;BME280;45919;51.420;5.454;2022-08-21T04:20:43;101538.50;;;13.94;85.29
59029;BME280;45919;51.420;5.454;2022-08-21T04:21:46;101535.88;;;13.94;85.23
59029;BME280;45919;51.420;5.454;2022-08-21T04:22:48;101531.44;;;13.88;85.53
59029;BME280;45919;51.420;5.454;2022-08-21T04:23:50;101534.09;;;13.91;85.49
59029;BME280;45919;51.420;5.454;2022-08-21T04:24:51;101513.84;;;13.81;85.46
59029;BME280;45919;51.420;5.454;2022-08-21T04:25:55;101534.97;;;13.92;85.78
59029;BME280;45919;51.420;5.454;2022-08-21T04:26:57;101535.81;;;13.89;85.44
59029;BME280;45919;51.420;5.454;2022-08-21T04:27:58;101538.41;;;13.87;85.44
59029;BME280;45919;51.420;5.454;2022-08-21T04:29:01;101540.22;;;13.90;85.25
59029;BME280;45919;51.420;5.454;2022-08-21T04:30:03;101538.47;;;13.91;85.31
59029;BME280;45919;51.420;5.454;2022-08-21T04:31:07;101540.22;;;13.90;85.51
59029;BME280;45919;51.420;5.454;2022-08-21T04:32:08;101531.44;;;13.88;85.39
59029;BME280;45919;51.420;5.454;2022-08-21T04:33:10;101530.50;;;13.83;85.78
59029;BME280;45919;51.420;5.454;2022-08-21T04:34:12;101540.19;;;13.89;85.63
59029;BME280;45919;51.420;5.454;2022-08-21T04:35:16;101548.09;;;13.90;85.58
59029;BME280;45919;51.420;5.454;2022-08-21T04:36:18;101541.94;;;13.88;85.56
59029;BME280;45919;51.420;5.454;2022-08-21T04:37:20;101553.31;;;13.89;85.70
59029;BME280;45919;51.420;5.454;2022-08-21T04:38:21;101527.75;;;13.75;85.57
59029;BME280;45919;51.420;5.454;2022-08-21T04:39:23;101552.44;;;13.88;85.66
59029;BME280;45919;51.420;5.454;2022-08-21T04:40:26;101549.78;;;13.86;85.83
59029;BME280;45919;51.420;5.454;2022-08-21T04:41:28;101548.06;;;13.87;85.64
59029;BME280;45919;51.420;5.454;2022-08-21T04:42:30;101552.44;;;13.88;85.60
59029;BME280;45919;51.420;5.454;2022-08-21T04:43:32;101549.81;;;13.88;85.38
59029;BME280;45919;51.420;5.454;2022-08-21T04:44:34;101550.69;;;13.87;85.58
59029;BME280;45919;51.420;5.454;2022-08-21T04:45:39;101555.97;;;13.90;85.47
59029;BME280;45919;51.420;5.454;2022-08-21T04:46:42;101552.44;;;13.90;85.29
59029;BME280;45919;51.420;5.454;2022-08-21T04:47:43;101558.63;;;13.92;85.38
59029;BME280;45919;51.420;5.454;2022-08-21T04:48:45;101546.34;;;13.91;85.18
59029;BME280;45919;51.420;5.454;2022-08-21T04:49:47;101550.78;;;13.96;84.79
59029;BME280;45919;51.420;5.454;2022-08-21T04:51:55;101553.47;;;13.99;84.75
59029;BME280;45919;51.420;5.454;2022-08-21T04:52:57;101495.31;;;13.71;84.61
59029;BME280;45919;51.420;5.454;2022-08-21T04:54:14;101560.69;;;14.19;84.31
59029;BME280;45919;51.420;5.454;2022-08-21T04:55:18;101549.25;;;14.13;84.13
59029;BME280;45919;51.420;5.454;2022-08-21T04:57:34;101554.63;;;14.23;83.40
59029;BME280;45919;51.420;5.454;2022-08-21T04:58:37;101556.38;;;14.26;83.26
59029;BME280;45919;51.420;5.454;2022-08-21T04:59:43;101554.69;;;14.33;83.31
59029;BME280;45919;51.420;5.454;2022-08-21T05:00:47;101557.38;;;14.34;82.90
59029;BME280;45919;51.420;5.454;2022-08-21T05:01:49;101560.00;;;14.34;82.85
59029;BME280;45919;51.420;5.454;2022-08-21T05:02:53;101559.13;;;14.37;82.93
59029;BME280;45919;51.420;5.454;2022-08-21T05:03:59;101553.84;;;14.34;82.63
59029;BME280;45919;51.420;5.454;2022-08-21T05:05:01;101554.78;;;14.41;82.80
59029;BME280;45919;51.420;5.454;2022-08-21T05:06:09;101557.50;;;14.47;82.80
59029;BME280;45919;51.420;5.454;2022-08-21T05:07:16;101520.47;;;14.23;82.69
59029;BME280;45919;51.420;5.454;2022-08-21T05:08:19;101555.72;;;14.46;82.73
59029;BME280;45919;51.420;5.454;2022-08-21T05:09:23;101553.06;;;14.41;82.67
59029;BME280;45919;51.420;5.454;2022-08-21T05:10:26;101560.03;;;14.41;82.56
59029;BME280;45919;51.420;5.454;2022-08-21T05:11:29;101553.09;;;14.46;82.51
59029;BME280;45919;51.420;5.454;2022-08-21T05:12:31;101554.00;;;14.48;82.51
59029;BME280;45919;51.420;5.454;2022-08-21T05:13:33;101549.63;;;14.47;82.61
59029;BME280;45919;51.420;5.454;2022-08-21T05:14:34;101553.16;;;14.49;82.36
59029;BME280;45919;51.420;5.454;2022-08-21T05:15:36;101557.53;;;14.50;82.52
59029;BME280;45919;51.420;5.454;2022-08-21T05:16:38;101561.94;;;14.54;82.46
59029;BME280;45919;51.420;5.454;2022-08-21T05:17:41;101556.72;;;14.56;82.29
59029;BME280;45919;51.420;5.454;2022-08-21T05:18:43;101565.47;;;14.56;82.15
59029;BME280;45919;51.420;5.454;2022-08-21T05:19:45;101560.19;;;14.55;82.26
59029;BME280;45919;51.420;5.454;2022-08-21T05:20:46;101560.22;;;14.56;82.25
59029;BME280;45919;51.420;5.454;2022-08-21T05:21:48;101532.94;;;14.45;82.21
59029;BME280;45919;51.420;5.454;2022-08-21T05:22:49;101549.66;;;14.53;82.12
59029;BME280;45919;51.420;5.454;2022-08-21T05:23:51;101554.13;;;14.62;81.72
59029;BME280;45919;51.420;5.454;2022-08-21T05:24:52;101564.69;;;14.67;81.96
59029;BME280;45919;51.420;5.454;2022-08-21T05:25:54;101565.53;;;14.64;81.78
59029;BME280;45919;51.420;5.454;2022-08-21T05:26:57;101567.34;;;14.68;81.83
59029;BME280;45919;51.420;5.454;2022-08-21T05:27:58;101543.56;;;14.56;81.90
59029;BME280;45919;51.420;5.454;2022-08-21T05:29:00;101568.25;;;14.74;81.88
59029;BME280;45919;51.420;5.454;2022-08-21T05:30:03;101567.44;;;14.76;81.87